AKDT,Max TemperatureF,Mean TemperatureF,Min TemperatureF,Max Dew PointF,MeanDew PointF,Min DewpointF,Max Humidity, Mean Humidity, Min Humidity, Max Sea Level PressureIn, Mean Sea Level PressureIn, Min Sea Level PressureIn, Max VisibilityMiles, Mean VisibilityMiles, Min VisibilityMiles, Max Wind SpeedMPH, Mean Wind SpeedMPH, Max Gust SpeedMPH,PrecipitationIn, CloudCover, Events, WindDirDegrees
2013-3-1,44,40,37,36,33,30,87,76,65,30.05,30.01,29.98,10,10,10,14,8,18,0.00,7,,126
2013-3-2,39,36,33,34,32,28,93,83,75,30.22,30.04,29.97,10,10,7,13,6,,0.09,6,,66
2013-3-3,37,34,30,32,29,25,87,81,70,30.46,30.39,30.23,10,10,5,7,3,,0.00,5,,259
2013-3-4,44,36,28,30,24,16,93,65,34,30.45,30.37,30.25,10,10,10,16,5,25,0.00,2,,113
2013-3-5,39,34,28,25,21,18,80,62,45,30.25,30.09,29.98,10,10,10,7,4,,0.00,0,,156
2013-3-6,37,30,24,21,18,16,74,60,41,29.99,29.95,29.92,10,10,10,9,5,,0.00,0,,192
2013-3-7,39,32,26,25,21,18,75,64,45,30.12,30.06,29.99,10,10,10,9,5,,0.00,0,,159
2013-3-8,42,36,30,32,27,21,80,70,57,30.20,30.16,30.12,10,10,10,9,5,,0.00,5,,129
2013-3-9,39,36,33,34,31,28,87,77,70,30.31,30.14,29.99,10,10,2,14,7,18,0.38,8,,144
2013-3-10,37,35,33,34,30,28,87,78,70,30.40,30.38,30.31,10,10,7,12,5,,0.13,8,,152
2013-3-11,39,36,33,32,30,27,87,77,65,30.40,30.23,30.02,10,10,2,16,6,23,0.03,8,,115
2013-3-12,42,37,32,30,27,21,87,69,49,30.02,29.80,29.69,10,10,2,13,7,,0.02,5,,122
2013-3-13,33,30,28,28,26,23,87,79,69,29.93,29.85,29.73,10,7,0,12,6,18,0.21,7,Snow,64
2013-3-14,35,32,30,23,21,19,75,60,56,29.91,29.83,29.77,10,10,9,17,9,23,0.00,7,,84
2013-3-15,33,30,26,27,25,21,86,78,60,30.01,29.91,29.84,10,4,2,18,11,25,0.04,8,,71
2013-3-16,32,29,26,25,22,19,86,77,69,30.03,29.99,29.96,10,10,10,12,4,,0.08,7,,315
2013-3-17,33,30,26,27,22,19,86,71,56,30.06,30.03,30.00,10,9,4,9,6,,0.00,6,,316
2013-3-18,35,32,28,30,27,25,93,82,75,30.04,30.00,29.93,10,6,0,10,3,,0.20,7,Snow,132
2013-3-19,35,32,28,30,28,23,87,81,70,29.92,29.72,29.55,10,7,0,13,4,18,0.30,7,Rain-Snow,146
2013-3-20,35,30,26,25,21,18,86,67,52,29.78,29.58,29.48,10,10,10,14,8,17,0.00,3,,319
2013-3-21,33,30,26,25,21,18,80,71,60,30.28,30.02,29.79,10,10,3,16,9,20,0.01,6,,23
2013-3-22,35,28,21,25,20,16,80,69,52,30.42,30.37,30.29,10,10,10,9,6,,0.00,2,,203
2013-3-23,42,35,28,27,25,21,80,64,45,30.32,30.27,30.18,10,10,10,12,7,18,0.00,4,,112
2013-3-24,42,38,35,34,29,27,70,64,53,30.17,30.06,29.92,10,10,10,14,6,18,0.00,8,,20
2013-3-25,44,38,33,37,35,28,87,78,66,30.01,29.90,29.83,10,10,6,14,7,20,0.15,7,,145
2013-3-26,42,36,30,34,29,23,93,75,49,30.18,30.11,30.01,10,10,9,9,5,,0.03,7,,162
2013-3-27,42,35,28,28,25,21,86,69,42,30.20,30.18,30.16,10,10,10,9,5,,0.00,1,,274
2013-3-28,42,34,26,27,23,21,80,64,42,30.24,30.21,30.19,10,10,10,8,3,,0.00,1,,260
2013-3-29,44,36,28,28,26,21,86,65,42,30.37,30.32,30.25,10,10,10,7,5,,0.00,1,,140
2013-3-30,42,40,37,37,33,28,87,81,70,30.42,30.39,30.37,10,9,7,14,6,17,0.13,8,,126
2013-3-31,44,40,35,37,35,30,93,83,71,30.40,30.24,30.07,10,8,1,12,4,,0.00,5,,277